KESN

Easton / Newnam Field Airport

Easton, Maryland, USA
METAR KESN 141646Z 32003KT 4SM BR OVC004 09/08 A3041
Observed Flight Rules
Dec-14 @ 16:46 UTC (19 minutes ago) Instrument Flight Rules
Wind Visibility Clouds Conditions
320° at 3 knots 4 miles
  • Overcast at 400' AGL
  • Mist
Temperatures Readings
Current 9°C / 48°F
Dewpoint 8°C / 46°F
Humidity 94%
Altimeter 30.41" Hg
Pressure 1030 hPa
Elevation 22
METAR KESN 141646Z 32003KT 4SM BR OVC004 09/08 A3041
Observed Flight Rules
Dec-14 @ 16:46 UTC
(19 minutes ago)
LIFR
Wind Visibility
320° at 3 knots 4 miles
Clouds
  • Overcast at 400' AGL
Conditions
  • Mist
Temperature Dewpoint
9°C / 48°F 8°C / 46°F
Humidity Altimeter Pressure
94% 30.41" Hg 1030 hPa